createdAt,value
2022-09-07T00:00:58.031Z,100516.41
2022-09-07T00:03:24.736Z,100542.19
2022-09-07T00:05:51.827Z,100593.94
2022-09-07T00:08:20.696Z,100608.06
2022-09-07T00:10:59.446Z,100519.91
2022-09-07T00:13:30.439Z,100414.53
2022-09-07T00:15:57.103Z,100421.38
2022-09-07T00:18:23.934Z,100506.28
2022-09-07T00:21:00.980Z,100554.09
2022-09-07T00:23:28.746Z,100585.41
2022-09-07T00:26:02.491Z,100586.28
2022-09-07T00:28:29.795Z,100588.25
2022-09-07T00:30:56.445Z,100531.25
2022-09-07T00:33:23.292Z,100576.56
2022-09-07T00:35:50.700Z,100518.16
2022-09-07T00:38:17.183Z,100590.22
2022-09-07T00:40:43.860Z,100595.97
2022-09-07T00:43:16.958Z,100581.06
2022-09-07T00:45:43.394Z,100565.50
2022-09-07T00:48:17.062Z,100597.03
2022-09-07T00:50:48.544Z,100547.84
2022-09-07T00:53:23.520Z,100579.59
2022-09-07T00:55:52.308Z,100575.00
2022-09-07T00:58:21.712Z,100559.66
2022-09-07T01:00:49.916Z,100472.75
2022-09-07T01:03:20.587Z,100545.06
2022-09-07T01:05:55.313Z,100568.53
2022-09-07T01:08:22.807Z,100562.66
2022-09-07T01:10:49.373Z,100555.72
2022-09-07T01:13:16.358Z,100534.38
2022-09-07T01:16:16.447Z,100558.41
2022-09-07T01:18:46.999Z,100563.19
2022-09-07T01:21:25.246Z,100580.06
2022-09-07T01:24:19.912Z,100544.88
2022-09-07T01:27:30.219Z,100555.72
2022-09-07T01:30:04.518Z,100568.50
2022-09-07T01:32:52.663Z,100552.97
2022-09-07T01:35:24.964Z,100571.94
2022-09-07T01:38:13.166Z,100568.53
2022-09-07T01:41:13.217Z,100565.19
2022-09-07T01:43:50.408Z,100576.72
2022-09-07T01:46:25.138Z,100497.53
2022-09-07T01:48:54.250Z,100471.31
2022-09-07T01:51:27.936Z,100521.19
2022-09-07T01:53:58.510Z,100496.03
2022-09-07T01:56:35.103Z,100537.03
2022-09-07T01:59:14.466Z,100532.03
2022-09-07T02:01:47.351Z,100538.34
2022-09-07T02:04:19.929Z,100547.19
2022-09-07T02:06:58.441Z,100547.81
2022-09-07T02:09:38.556Z,100538.44
2022-09-07T02:12:16.517Z,100524.69
2022-09-07T02:14:51.903Z,100491.75
2022-09-07T02:17:33.736Z,100525.19
2022-09-07T02:20:13.044Z,100509.00
2022-09-07T02:22:45.153Z,100520.09
2022-09-07T02:25:19.276Z,100523.84
2022-09-07T02:27:51.981Z,100425.94
2022-09-07T02:30:18.450Z,100529.97
2022-09-07T02:32:44.986Z,100494.03
2022-09-07T02:35:12.209Z,100515.63
2022-09-07T02:37:41.176Z,100518.31
2022-09-07T02:40:08.787Z,100499.31
2022-09-07T02:42:36.674Z,100398.47
2022-09-07T02:45:07.432Z,100512.97
2022-09-07T02:48:09.366Z,100516.38
2022-09-07T02:50:58.662Z,100515.09
2022-09-07T02:53:49.012Z,100518.34
2022-09-07T02:56:39.230Z,100518.00
2022-09-07T02:59:44.379Z,100528.03
2022-09-07T03:02:29.778Z,100524.03
2022-09-07T03:05:05.315Z,100519.81
2022-09-07T03:07:54.950Z,100524.06
2022-09-07T03:10:21.793Z,100489.75
2022-09-07T03:12:49.807Z,100524.06
2022-09-07T03:15:22.270Z,100515.69
2022-09-07T03:17:49.110Z,100515.03
2022-09-07T03:20:17.090Z,100514.28
2022-09-07T03:22:44.638Z,100496.50
2022-09-07T03:25:11.816Z,100516.34
2022-09-07T03:27:38.373Z,100436.06
2022-09-07T03:30:07.017Z,100505.25
2022-09-07T03:32:36.077Z,100448.34
2022-09-07T03:35:04.683Z,100505.13
2022-09-07T03:37:31.087Z,100510.00
2022-09-07T03:39:57.904Z,100499.91
2022-09-07T03:42:24.395Z,100492.50
2022-09-07T03:44:50.846Z,100455.16
2022-09-07T03:47:17.892Z,100486.50
2022-09-07T03:49:44.323Z,100389.22
2022-09-07T03:52:11.565Z,100414.25
2022-09-07T03:54:39.744Z,100381.06
2022-09-07T03:57:06.461Z,100493.91
2022-09-07T03:59:33.079Z,100504.38
2022-09-07T04:01:59.700Z,100490.69
2022-09-07T04:04:26.124Z,100496.22
2022-09-07T04:06:52.669Z,100405.94
2022-09-07T04:09:19.218Z,100441.19
2022-09-07T04:11:45.664Z,100497.34
2022-09-07T04:14:12.130Z,100401.94
2022-09-07T04:16:39.343Z,100486.91
2022-09-07T04:19:06.015Z,100484.63
2022-09-07T04:21:33.962Z,100415.78
2022-09-07T04:24:00.866Z,100474.13
2022-09-07T04:26:30.379Z,100457.75
2022-09-07T04:28:57.818Z,100486.19
2022-09-07T04:31:24.704Z,100455.44
2022-09-07T04:33:51.983Z,100475.06
2022-09-07T04:36:19.304Z,100493.19
2022-09-07T04:38:46.547Z,100470.78
2022-09-07T04:41:18.419Z,100394.22
2022-09-07T04:43:46.325Z,100478.47
2022-09-07T04:46:30.485Z,100371.84
2022-09-07T04:48:59.073Z,100362.69
2022-09-07T04:51:28.416Z,100441.88
2022-09-07T04:53:56.336Z,100394.78
2022-09-07T04:56:23.357Z,100489.75
2022-09-07T04:58:50.593Z,100369.38
2022-09-07T05:01:19.823Z,100489.31
2022-09-07T05:03:47.285Z,100487.78
2022-09-07T05:06:16.199Z,100492.25
2022-09-07T05:08:48.698Z,100489.06
2022-09-07T05:11:16.099Z,100302.88
2022-09-07T05:13:42.583Z,100375.38
2022-09-07T05:16:11.660Z,100483.53
2022-09-07T05:18:38.181Z,100463.25
2022-09-07T05:21:25.780Z,100421.38
2022-09-07T05:23:53.537Z,100505.59
2022-09-07T05:26:22.158Z,100439.03
2022-09-07T05:28:49.714Z,100463.31
2022-09-07T05:31:19.232Z,100489.09
2022-09-07T05:36:40.918Z,100469.00
2022-09-07T05:39:08.507Z,100473.00
2022-09-07T05:41:35.207Z,100476.97
2022-09-07T05:46:48.591Z,100440.13
2022-09-07T05:49:14.951Z,100465.41
2022-09-07T05:51:41.354Z,100464.44
2022-09-07T05:54:07.797Z,100503.91
2022-09-07T05:56:35.907Z,100516.06
2022-09-07T05:59:02.306Z,100497.28
2022-09-07T06:01:28.759Z,100457.16
2022-09-07T06:03:55.121Z,100507.31
2022-09-07T06:06:21.602Z,100499.53
2022-09-07T06:08:50.550Z,100481.03
2022-09-07T06:11:19.222Z,100508.00
2022-09-07T06:13:45.819Z,100465.59
2022-09-07T06:16:14.066Z,100520.31
2022-09-07T06:18:43.062Z,100497.50
2022-09-07T06:21:15.170Z,100524.81
2022-09-07T06:23:43.092Z,100541.19
2022-09-07T06:26:10.552Z,100465.34
2022-09-07T06:28:39.507Z,100544.09
2022-09-07T06:31:09.979Z,100523.75
2022-09-07T06:33:36.766Z,100543.81
2022-09-07T06:36:12.243Z,100457.81
2022-09-07T06:38:39.175Z,100552.66
2022-09-07T06:43:57.006Z,100516.28
2022-09-07T06:49:10.664Z,100556.94
2022-09-07T06:51:37.090Z,100530.59
2022-09-07T06:56:51.745Z,100465.75
2022-09-07T06:59:18.167Z,100567.78
2022-09-07T07:01:44.563Z,100562.56
2022-09-07T07:04:11.115Z,100559.72
2022-09-07T07:06:39.104Z,100553.41
2022-09-07T07:09:08.049Z,100554.75
2022-09-07T07:11:37.006Z,100583.00
2022-09-07T07:14:03.586Z,100571.97
2022-09-07T07:16:30.019Z,100557.66
2022-09-07T07:18:56.818Z,100558.84
2022-09-07T07:21:23.617Z,100538.38
2022-09-07T07:23:51.964Z,100568.44
2022-09-07T07:26:26.674Z,100583.72
2022-09-07T07:29:03.539Z,100604.91
2022-09-07T07:31:32.512Z,100572.28
2022-09-07T07:33:59.076Z,100582.31
2022-09-07T07:36:27.261Z,100588.41
2022-09-07T07:44:16.729Z,100556.34
2022-09-07T07:46:43.246Z,100594.94
2022-09-07T07:49:09.971Z,100576.53
2022-09-07T07:54:22.859Z,100609.63
2022-09-07T07:56:49.218Z,100577.47
2022-09-07T07:59:15.995Z,100585.25
2022-09-07T08:01:43.658Z,100598.63
2022-09-07T08:04:10.254Z,100590.94
2022-09-07T08:06:37.978Z,100596.34
2022-09-07T08:09:04.291Z,100592.56
2022-09-07T08:11:31.134Z,100574.53
2022-09-07T08:14:00.089Z,100591.03
2022-09-07T08:16:26.654Z,100585.16
2022-09-07T08:18:53.607Z,100610.31
2022-09-07T08:21:20.075Z,100600.06
2022-09-07T08:23:46.432Z,100529.91
2022-09-07T08:26:12.768Z,100600.94
2022-09-07T08:28:41.008Z,100616.50
2022-09-07T08:31:10.287Z,100615.13
2022-09-07T08:33:37.869Z,100575.63
2022-09-07T08:36:07.534Z,100604.72
2022-09-07T08:38:35.640Z,100618.59
2022-09-07T08:41:03.814Z,100609.84
2022-09-07T08:43:53.766Z,100595.59
2022-09-07T08:46:45.084Z,100602.09
2022-09-07T08:49:35.198Z,100601.97
2022-09-07T08:52:12.364Z,100586.00
2022-09-07T08:54:42.039Z,100586.00
2022-09-07T08:57:23.955Z,100573.25
2022-09-07T09:00:26.434Z,100609.53
2022-09-07T09:06:20.639Z,100604.69
2022-09-07T09:08:46.969Z,100615.16
2022-09-07T09:11:35.119Z,100592.97
2022-09-07T09:14:26.324Z,100617.47
2022-09-07T09:16:59.170Z,100634.78
2022-09-07T09:19:47.358Z,100632.63
2022-09-07T09:22:22.259Z,100616.72
2022-09-07T09:24:53.168Z,100633.91
2022-09-07T09:27:19.535Z,100645.06
2022-09-07T09:29:45.928Z,100623.53
2022-09-07T09:32:33.905Z,100646.56
2022-09-07T09:35:03.209Z,100647.84
2022-09-07T09:37:34.642Z,100616.13
2022-09-07T09:40:02.784Z,100646.41
2022-09-07T09:42:33.053Z,100651.13
2022-09-07T09:45:16.293Z,100649.94
2022-09-07T09:47:50.173Z,100630.75
2022-09-07T09:53:40.028Z,100647.69
2022-09-07T09:56:07.510Z,100651.19
2022-09-07T10:01:30.977Z,100652.41
2022-09-07T10:03:59.589Z,100618.63
2022-09-07T10:06:27.846Z,100624.72
2022-09-07T10:08:57.771Z,100658.06
2022-09-07T10:14:34.706Z,100645.28
2022-09-07T10:17:10.226Z,100657.72
2022-09-07T10:19:39.559Z,100619.94
2022-09-07T10:22:32.193Z,100663.59
2022-09-07T10:25:00.782Z,100629.69
2022-09-07T10:27:29.851Z,100657.47
2022-09-07T10:29:56.315Z,100647.56
2022-09-07T10:32:26.435Z,100650.56
2022-09-07T10:35:16.204Z,100632.69
2022-09-07T10:37:52.740Z,100620.50
2022-09-07T10:40:25.067Z,100645.19
2022-09-07T10:43:23.514Z,100642.31
2022-09-07T10:46:11.545Z,100643.78
2022-09-07T10:49:12.585Z,100616.75
2022-09-07T10:52:03.507Z,100642.34
2022-09-07T10:54:54.701Z,100586.41
2022-09-07T10:57:54.000Z,100650.44
2022-09-07T11:00:22.461Z,100616.53
2022-09-07T11:06:02.088Z,100651.75
2022-09-07T11:14:31.336Z,100632.94
2022-09-07T11:17:02.727Z,100590.88
2022-09-07T11:19:36.166Z,100612.69
2022-09-07T11:22:09.269Z,100621.28
2022-09-07T11:24:46.260Z,100620.06
2022-09-07T11:27:18.954Z,100564.13
2022-09-07T11:30:04.955Z,100600.38
2022-09-07T11:32:37.394Z,100612.03
2022-09-07T11:35:24.803Z,100574.97
2022-09-07T11:37:59.202Z,100613.25
2022-09-07T11:40:42.053Z,100575.72
2022-09-07T11:43:22.693Z,100552.16
2022-09-07T11:45:56.681Z,100581.97
2022-09-07T11:48:35.239Z,100603.50
2022-09-07T11:51:09.118Z,100578.56
2022-09-07T11:53:46.182Z,100601.81
2022-09-07T11:56:21.568Z,100544.66
2022-09-07T11:59:06.119Z,100606.69
2022-09-07T12:01:45.543Z,100606.19
2022-09-07T12:04:31.916Z,100595.28
2022-09-07T12:07:35.057Z,100607.16
2022-09-07T12:10:35.878Z,100571.19
2022-09-07T12:13:19.951Z,100583.31
2022-09-07T12:15:57.325Z,100598.41
2022-09-07T12:18:49.832Z,100574.84
2022-09-07T12:21:41.327Z,100602.78
2022-09-07T12:24:53.209Z,100591.97
2022-09-07T12:27:19.478Z,100604.88
2022-09-07T12:29:52.404Z,100572.78
2022-09-07T12:32:54.916Z,100587.72
2022-09-07T12:35:31.035Z,100584.06
2022-09-07T12:37:58.300Z,100575.47
2022-09-07T12:40:27.814Z,100576.25
2022-09-07T12:43:12.535Z,100573.53
2022-09-07T12:45:38.891Z,100570.19
2022-09-07T12:48:17.446Z,100566.47
2022-09-07T12:51:09.827Z,100570.03
2022-09-07T12:53:39.202Z,100561.84
2022-09-07T12:56:31.158Z,100543.97
2022-09-07T12:59:25.798Z,100565.78
2022-09-07T13:02:23.993Z,100564.94
2022-09-07T13:05:19.584Z,100554.94
2022-09-07T13:08:14.294Z,100559.84
2022-09-07T13:10:44.295Z,100549.47
2022-09-07T13:16:13.728Z,100544.75
2022-09-07T13:18:43.685Z,100541.53
2022-09-07T13:21:10.780Z,100538.28
2022-09-07T13:23:45.737Z,100539.72
2022-09-07T13:26:33.184Z,100511.34
2022-09-07T13:29:04.311Z,100534.06
2022-09-07T13:31:52.956Z,100529.81
2022-09-07T13:34:34.597Z,100530.94
2022-09-07T13:37:03.123Z,100506.56
2022-09-07T13:39:38.573Z,100522.09
2022-09-07T13:42:05.738Z,100510.75
2022-09-07T13:44:34.333Z,100443.94
2022-09-07T13:47:29.725Z,100495.06
2022-09-07T13:50:10.345Z,100517.50
2022-09-07T13:52:55.054Z,100512.53
2022-09-07T13:55:40.112Z,100504.06
2022-09-07T13:58:13.297Z,100521.00
2022-09-07T14:00:54.165Z,100507.97
2022-09-07T14:03:22.360Z,100501.75
2022-09-07T14:05:48.826Z,100481.50
2022-09-07T14:08:29.438Z,100484.78
2022-09-07T14:10:55.801Z,100430.19
2022-09-07T14:13:22.208Z,100494.97
2022-09-07T14:15:50.281Z,100497.38
2022-09-07T14:18:22.362Z,100482.50
2022-09-07T14:20:51.696Z,100483.91
2022-09-07T14:23:27.829Z,100503.19
2022-09-07T14:26:18.956Z,100485.91
2022-09-07T14:28:54.227Z,100502.31
2022-09-07T14:31:23.245Z,100493.25
2022-09-07T14:33:58.345Z,100493.03
2022-09-07T14:36:45.380Z,100487.31
2022-09-07T14:39:15.433Z,100461.03
2022-09-07T14:41:43.220Z,100463.00
2022-09-07T14:44:31.894Z,100496.66
2022-09-07T14:47:02.173Z,100470.88
2022-09-07T14:49:28.883Z,100458.44
2022-09-07T14:51:55.828Z,100449.66
2022-09-07T14:54:27.314Z,100479.59
2022-09-07T14:57:09.131Z,100477.19
2022-09-07T14:59:37.217Z,100483.03
2022-09-07T15:02:18.720Z,100487.31
2022-09-07T15:05:09.324Z,100471.50
2022-09-07T15:07:54.966Z,100431.75
2022-09-07T15:10:21.234Z,100485.63
2022-09-07T15:12:49.877Z,100475.97
2022-09-07T15:15:21.805Z,100483.06
2022-09-07T15:17:48.763Z,100456.56
2022-09-07T15:20:31.806Z,100445.88
2022-09-07T15:22:58.862Z,100475.06
2022-09-07T15:25:25.266Z,100442.00
2022-09-07T15:27:51.848Z,100451.09
2022-09-07T15:30:18.222Z,100444.28
2022-09-07T15:32:44.630Z,100416.38
2022-09-07T15:35:11.073Z,100445.22
2022-09-07T15:40:26.154Z,100457.44
2022-09-07T15:43:00.518Z,100439.97
2022-09-07T15:45:27.251Z,100420.16
2022-09-07T15:47:53.783Z,100432.50
2022-09-07T15:50:23.127Z,100425.63
2022-09-07T15:52:49.774Z,100420.75
2022-09-07T15:55:17.380Z,100443.84
2022-09-07T15:58:02.233Z,100395.84
2022-09-07T16:00:30.674Z,100441.22
2022-09-07T16:03:06.058Z,100425.19
2022-09-07T16:05:33.598Z,100443.16
2022-09-07T16:10:53.508Z,100425.59
2022-09-07T16:13:20.438Z,100443.25
2022-09-07T16:15:48.686Z,100447.94
2022-09-07T16:18:17.478Z,100440.06
2022-09-07T16:20:44.938Z,100404.75
2022-09-07T16:23:14.693Z,100447.28
2022-09-07T16:25:43.081Z,100438.03
2022-09-07T16:28:10.026Z,100436.97
2022-09-07T16:30:40.245Z,100435.84
2022-09-07T16:33:06.674Z,100420.84
2022-09-07T16:35:33.154Z,100438.09
2022-09-07T16:40:46.377Z,100417.19
2022-09-07T16:43:13.041Z,100431.00
2022-09-07T16:48:25.672Z,100421.09
2022-09-07T16:51:00.377Z,100427.56
2022-09-07T16:53:34.259Z,100399.28
2022-09-07T16:56:09.231Z,100425.03
2022-09-07T16:58:44.729Z,100407.78
2022-09-07T17:01:16.495Z,100402.69
2022-09-07T17:03:43.414Z,100391.94
2022-09-07T17:06:11.498Z,100439.28
2022-09-07T17:08:39.701Z,100431.06
2022-09-07T17:11:10.478Z,100425.28
2022-09-07T17:13:38.392Z,100355.94
2022-09-07T17:16:10.080Z,100392.41
2022-09-07T17:21:23.938Z,100390.97
2022-09-07T17:23:55.381Z,100406.53
2022-09-07T17:26:23.244Z,100346.38
2022-09-07T17:28:51.632Z,100386.16
2022-09-07T17:34:13.317Z,100396.25
2022-09-07T17:36:40.330Z,100345.34
2022-09-07T17:39:16.273Z,100318.53
2022-09-07T17:41:44.488Z,100393.66
2022-09-07T17:44:10.904Z,100381.63
2022-09-07T17:46:37.358Z,100333.06
2022-09-07T17:49:05.143Z,100385.50
2022-09-07T17:51:32.324Z,100375.09
2022-09-07T17:54:02.552Z,100381.34
2022-09-07T17:56:29.866Z,100376.69
2022-09-07T18:00:10.628Z,100389.72
2022-09-07T18:01:42.740Z,100375.69
2022-09-07T18:04:09.903Z,100272.25
2022-09-07T18:06:37.752Z,100409.50
2022-09-07T18:09:05.359Z,100396.06
2022-09-07T18:11:48.714Z,100326.41
2022-09-07T18:14:15.569Z,100417.34
2022-09-07T18:16:43.537Z,100407.78
2022-09-07T18:19:11.307Z,100357.75
2022-09-07T18:21:40.965Z,100395.25
2022-09-07T18:24:16.997Z,100404.38
2022-09-07T18:26:49.623Z,100393.31
2022-09-07T18:29:28.132Z,100394.28
2022-09-07T18:31:56.272Z,100406.09
2022-09-07T18:34:23.065Z,100399.59
2022-09-07T18:36:50.075Z,100298.44
2022-09-07T18:39:16.610Z,100370.44
2022-09-07T18:41:42.987Z,100390.38
2022-09-07T18:46:55.953Z,100405.00
2022-09-07T18:49:22.538Z,100393.34
2022-09-07T18:54:35.254Z,100411.72
2022-09-07T18:57:01.652Z,100395.19
2022-09-07T18:59:29.541Z,100399.59
2022-09-07T19:02:01.330Z,100408.38
2022-09-07T19:05:49.733Z,100311.16
2022-09-07T19:07:20.266Z,100396.78
2022-09-07T19:09:47.958Z,100327.53
2022-09-07T19:12:14.310Z,100391.41
2022-09-07T19:14:42.146Z,100350.00
2022-09-07T19:17:10.700Z,100354.47
2022-09-07T19:19:37.561Z,100348.41
2022-09-07T19:22:03.948Z,100386.09
2022-09-07T19:24:31.714Z,100350.13
2022-09-07T19:27:00.389Z,100360.59
2022-09-07T19:29:27.685Z,100376.50
2022-09-07T19:32:11.777Z,100375.28
2022-09-07T19:34:41.403Z,100373.47
2022-09-07T19:37:10.229Z,100342.78
2022-09-07T19:39:36.949Z,100369.75
2022-09-07T19:42:05.170Z,100328.16
2022-09-07T19:44:32.448Z,100347.50
2022-09-07T19:47:22.153Z,100360.75
2022-09-07T19:49:48.543Z,100342.16
2022-09-07T19:52:15.301Z,100359.53
2022-09-07T19:54:41.613Z,100375.69
2022-09-07T19:57:07.963Z,100349.94
2022-09-07T19:59:34.297Z,100350.41
2022-09-07T20:02:00.700Z,100341.69
2022-09-07T20:04:28.100Z,100344.59
2022-09-07T20:06:54.516Z,100241.84
2022-09-07T20:09:20.860Z,100311.78
2022-09-07T20:11:47.917Z,100271.72
2022-09-07T20:14:15.644Z,100343.59
2022-09-07T20:16:42.103Z,100302.53
2022-09-07T20:19:11.493Z,100293.81
2022-09-07T20:21:37.903Z,100289.44
2022-09-07T20:24:04.544Z,100317.34
2022-09-07T20:26:32.191Z,100353.97
2022-09-07T20:29:16.844Z,100316.22
2022-09-07T20:31:46.202Z,100304.00
2022-09-07T20:34:12.875Z,100320.00
2022-09-07T20:36:39.534Z,100288.50
2022-09-07T20:39:06.158Z,100309.78
2022-09-07T20:41:33.976Z,100313.91
2022-09-07T20:44:02.244Z,100279.66
2022-09-07T20:46:29.701Z,100276.38
2022-09-07T20:48:56.165Z,100293.19
2022-09-07T20:51:23.250Z,100242.13
2022-09-07T20:53:49.886Z,100311.50
2022-09-07T20:56:22.299Z,100262.91
2022-09-07T20:58:53.484Z,100292.78
2022-09-07T21:01:21.054Z,100296.44
2022-09-07T21:03:49.986Z,100312.72
2022-09-07T21:06:17.302Z,100264.47
2022-09-07T21:08:44.944Z,100302.00
2022-09-07T21:11:19.057Z,100306.78
2022-09-07T21:13:46.589Z,100299.84
2022-09-07T21:16:15.500Z,100290.47
2022-09-07T21:18:44.217Z,100287.38
2022-09-07T21:21:20.437Z,100308.22
2022-09-07T21:23:47.526Z,100279.97
2022-09-07T21:26:13.945Z,100292.63
2022-09-07T21:28:40.252Z,100274.78
2022-09-07T21:31:08.812Z,100256.94
2022-09-07T21:33:35.997Z,100288.63
2022-09-07T21:36:07.834Z,100249.22
2022-09-07T21:38:35.487Z,100284.22
2022-09-07T21:41:13.151Z,100289.59
2022-09-07T21:43:40.151Z,100294.41
2022-09-07T21:46:13.886Z,100283.94
2022-09-07T21:48:40.491Z,100278.97
2022-09-07T21:51:07.010Z,100285.53
2022-09-07T21:53:34.256Z,100301.69
2022-09-07T21:56:05.914Z,100298.06
2022-09-07T21:58:33.371Z,100297.28
2022-09-07T22:01:07.768Z,100276.72
2022-09-07T22:03:34.121Z,100284.16
2022-09-07T22:06:03.866Z,100270.53
2022-09-07T22:08:30.908Z,100284.16
2022-09-07T22:11:04.885Z,100274.31
2022-09-07T22:13:31.282Z,100266.91
2022-09-07T22:15:57.702Z,100298.75
2022-09-07T22:18:24.020Z,100276.72
2022-09-07T22:21:01.216Z,100309.56
2022-09-07T22:23:30.022Z,100297.28
2022-09-07T22:25:56.495Z,100289.41
2022-09-07T22:28:22.801Z,100203.06
2022-09-07T22:30:49.116Z,100257.81
2022-09-07T22:33:15.411Z,100271.22
2022-09-07T22:35:41.790Z,100276.84
2022-09-07T22:38:08.082Z,100271.78
2022-09-07T22:40:34.519Z,100288.31
2022-09-07T22:43:00.827Z,100250.03
2022-09-07T22:45:27.693Z,100247.75
2022-09-07T22:47:53.995Z,100272.00
2022-09-07T22:50:20.327Z,100229.22
2022-09-07T22:52:46.954Z,100231.75
2022-09-07T22:55:13.267Z,100266.38
2022-09-07T22:57:39.622Z,100248.25
2022-09-07T23:00:07.355Z,100251.66
2022-09-07T23:02:33.666Z,100240.94
2022-09-07T23:05:00.028Z,100237.97
2022-09-07T23:07:26.434Z,100243.69
2022-09-07T23:09:52.724Z,100227.53
2022-09-07T23:12:19.031Z,100225.41
2022-09-07T23:14:45.358Z,100230.28
2022-09-07T23:17:12.298Z,100223.47
2022-09-07T23:19:38.720Z,100240.94
2022-09-07T23:22:06.283Z,100218.34
2022-09-07T23:24:32.699Z,100200.66
2022-09-07T23:26:59.079Z,100207.69
2022-09-07T23:29:25.362Z,100199.63
2022-09-07T23:31:51.745Z,100207.91
2022-09-07T23:34:18.261Z,100175.63
2022-09-07T23:36:44.818Z,100186.28
2022-09-07T23:39:11.247Z,100170.81
2022-09-07T23:41:37.587Z,100193.75
2022-09-07T23:44:04.031Z,100195.47
2022-09-07T23:46:30.468Z,100195.97
2022-09-07T23:48:56.823Z,100187.97
2022-09-07T23:51:24.737Z,100152.72
2022-09-07T23:53:52.258Z,100157.81
2022-09-07T23:56:19.025Z,100177.94
2022-09-07T23:58:45.398Z,100175.34
